createdAt,value
2023-05-14T00:00:58.764Z,85.44
2023-05-14T00:01:58.936Z,85.25
2023-05-14T00:02:59.045Z,85.39
2023-05-14T00:03:58.981Z,85.20
2023-05-14T00:04:58.949Z,85.25
2023-05-14T00:05:58.944Z,85.37
2023-05-14T00:06:59.063Z,85.51
2023-05-14T00:07:59.105Z,85.76
2023-05-14T00:08:59.039Z,85.80
2023-05-14T00:09:59.083Z,85.78
2023-05-14T00:10:59.124Z,85.66
2023-05-14T00:11:59.179Z,85.67
2023-05-14T00:12:59.208Z,85.62
2023-05-14T00:13:59.160Z,85.60
2023-05-14T00:14:59.235Z,85.54
2023-05-14T00:15:59.302Z,85.63
2023-05-14T00:16:59.276Z,85.80
2023-05-14T00:17:59.381Z,85.95
2023-05-14T00:18:59.527Z,86.08
2023-05-14T00:19:59.400Z,86.15
2023-05-14T00:20:59.453Z,86.34
2023-05-14T00:21:59.487Z,86.21
2023-05-14T00:22:59.518Z,86.04
2023-05-14T00:23:59.592Z,85.98
2023-05-14T00:24:59.598Z,85.82
2023-05-14T00:25:59.613Z,85.71
2023-05-14T00:26:59.678Z,85.82
2023-05-14T00:27:59.712Z,85.70
2023-05-14T00:28:59.741Z,85.70
2023-05-14T00:29:59.774Z,85.33
2023-05-14T00:30:59.757Z,85.25
2023-05-14T00:31:59.772Z,85.36
2023-05-14T00:32:59.826Z,85.44
2023-05-14T00:33:59.904Z,85.23
2023-05-14T00:34:59.919Z,85.31
2023-05-14T00:35:59.901Z,85.31
2023-05-14T00:40:35.210Z,85.08
2023-05-14T00:43:54.802Z,86.79
2023-05-14T00:47:34.912Z,85.15
2023-05-14T00:48:34.822Z,84.92
2023-05-14T00:49:34.808Z,84.66
2023-05-14T00:50:34.797Z,84.56
2023-05-14T00:51:34.793Z,84.71
2023-05-14T00:52:35.323Z,84.76
2023-05-14T00:53:34.801Z,84.79
2023-05-14T00:54:34.783Z,84.76
2023-05-14T00:55:34.802Z,84.92
2023-05-14T00:56:34.878Z,84.53
2023-05-14T00:57:35.130Z,84.31
2023-05-14T00:58:34.760Z,84.32
2023-05-14T00:59:34.745Z,84.34
2023-05-14T01:00:34.831Z,84.36
2023-05-14T01:01:34.934Z,84.59
2023-05-14T01:02:34.796Z,84.54
2023-05-14T01:03:34.758Z,84.54
2023-05-14T01:04:34.762Z,84.77
2023-05-14T01:05:34.706Z,84.39
2023-05-14T01:06:34.734Z,84.58
2023-05-14T01:07:34.687Z,84.70
2023-05-14T01:08:34.709Z,84.74
2023-05-14T01:09:34.692Z,84.79
2023-05-14T01:10:34.660Z,84.87
2023-05-14T01:11:34.654Z,84.74
2023-05-14T01:12:34.679Z,84.45
2023-05-14T01:13:34.628Z,84.38
2023-05-14T01:14:34.643Z,84.61
2023-05-14T01:15:34.644Z,84.74
2023-05-14T01:16:34.679Z,84.31
2023-05-14T01:17:34.681Z,84.50
2023-05-14T01:18:34.653Z,84.19
2023-05-14T01:19:34.594Z,84.21
2023-05-14T01:20:34.639Z,84.09
2023-05-14T01:21:34.831Z,83.97
2023-05-14T01:22:34.581Z,84.17
2023-05-14T01:23:34.654Z,84.24
2023-05-14T01:24:34.593Z,83.80
2023-05-14T01:25:34.592Z,83.70
2023-05-14T01:26:34.616Z,83.59
2023-05-14T01:27:34.639Z,83.82
2023-05-14T01:28:34.687Z,83.66
2023-05-14T01:29:34.766Z,83.93
2023-05-14T01:30:34.735Z,83.84
2023-05-14T01:31:34.816Z,83.83
2023-05-14T01:32:34.799Z,83.94
2023-05-14T01:33:34.865Z,84.00
2023-05-14T01:34:34.873Z,83.83
2023-05-14T01:35:34.896Z,83.97
2023-05-14T01:36:34.874Z,83.82
2023-05-14T01:37:34.886Z,83.89
2023-05-14T01:38:34.925Z,83.78
2023-05-14T01:39:34.939Z,83.64
2023-05-14T01:40:34.919Z,83.59
2023-05-14T01:41:34.913Z,83.49
2023-05-14T01:42:34.923Z,83.44
2023-05-14T01:43:35.056Z,83.32
2023-05-14T01:44:35.004Z,83.47
2023-05-14T01:45:35.067Z,83.55
2023-05-14T01:46:35.108Z,83.32
2023-05-14T01:47:35.112Z,83.26
2023-05-14T01:48:35.162Z,83.38
2023-05-14T01:49:35.231Z,83.52
2023-05-14T01:50:35.266Z,83.47
2023-05-14T01:51:35.394Z,83.40
2023-05-14T01:52:35.324Z,83.56
2023-05-14T01:53:35.412Z,83.09
2023-05-14T01:54:35.405Z,83.13
2023-05-14T01:55:35.453Z,83.29
2023-05-14T01:56:35.754Z,82.77
2023-05-14T01:57:35.587Z,83.08
2023-05-14T01:58:35.579Z,83.00
2023-05-14T01:59:35.614Z,82.96
2023-05-14T02:00:35.649Z,82.91
2023-05-14T02:03:20.983Z,84.91
2023-05-14T02:04:21.010Z,83.26
2023-05-14T02:05:19.913Z,83.09
2023-05-14T02:09:40.045Z,85.35
2023-05-14T02:11:57.273Z,85.79
2023-05-14T02:15:36.177Z,84.34
2023-05-14T02:22:47.944Z,86.47
2023-05-14T02:23:47.674Z,84.52
2023-05-14T02:26:07.700Z,83.78
2023-05-14T02:27:08.343Z,83.59
2023-05-14T02:29:59.524Z,85.83
2023-05-14T02:30:59.038Z,84.17
2023-05-14T02:31:59.067Z,83.82
2023-05-14T02:32:59.078Z,83.50
2023-05-14T02:33:59.013Z,83.26
2023-05-14T02:34:58.990Z,83.22
2023-05-14T02:35:58.969Z,83.18
2023-05-14T02:36:59.007Z,83.18
2023-05-14T02:37:58.974Z,83.03
2023-05-14T02:38:58.946Z,82.94
2023-05-14T02:39:58.888Z,82.70
2023-05-14T02:40:58.885Z,82.52
2023-05-14T02:41:58.910Z,82.32
2023-05-14T02:42:58.905Z,82.46
2023-05-14T02:43:58.873Z,82.42
2023-05-14T02:44:58.918Z,82.14
2023-05-14T02:45:58.838Z,82.47
2023-05-14T02:46:58.929Z,82.42
2023-05-14T02:47:58.871Z,82.67
2023-05-14T02:48:58.947Z,82.37
2023-05-14T02:49:59.143Z,82.30
2023-05-14T02:50:58.971Z,82.32
2023-05-14T02:51:59.593Z,82.52
2023-05-14T02:52:59.052Z,82.45
2023-05-14T02:53:59.088Z,82.43
2023-05-14T02:54:59.137Z,82.82
2023-05-14T02:57:18.925Z,83.36
2023-05-14T02:58:19.417Z,83.50
2023-05-14T03:00:45.581Z,85.29
2023-05-14T03:01:45.189Z,83.73
2023-05-14T03:02:44.899Z,83.52
2023-05-14T03:03:44.861Z,83.71
2023-05-14T03:06:31.986Z,85.95
2023-05-14T03:07:31.513Z,84.24
2023-05-14T03:09:51.327Z,84.01
2023-05-14T03:10:51.327Z,84.03
2023-05-14T03:11:51.470Z,83.94
2023-05-14T03:12:51.170Z,83.97
2023-05-14T03:13:51.171Z,84.11
2023-05-14T03:14:51.156Z,84.19
2023-05-14T03:15:51.131Z,84.24
2023-05-14T03:16:51.179Z,84.21
2023-05-14T03:17:51.210Z,84.14
2023-05-14T03:18:51.174Z,83.95
2023-05-14T03:19:51.079Z,83.80
2023-05-14T03:20:51.073Z,83.73
2023-05-14T03:21:51.088Z,83.33
2023-05-14T03:22:51.092Z,83.38
2023-05-14T03:23:51.114Z,83.37
2023-05-14T03:24:51.075Z,83.60
2023-05-14T03:25:51.101Z,83.16
2023-05-14T03:26:51.100Z,83.36
2023-05-14T03:27:51.025Z,83.76
2023-05-14T03:28:51.070Z,83.35
2023-05-14T03:29:51.118Z,83.33
2023-05-14T03:30:51.057Z,83.19
2023-05-14T03:31:51.025Z,82.96
2023-05-14T03:32:51.088Z,83.07
2023-05-14T03:33:51.036Z,83.23
2023-05-14T03:34:51.005Z,83.27
2023-05-14T03:35:50.967Z,83.38
2023-05-14T03:36:51.060Z,83.31
2023-05-14T03:37:50.983Z,83.30
2023-05-14T03:38:50.995Z,82.97
2023-05-14T03:39:51.805Z,82.93
2023-05-14T03:40:50.986Z,82.44
2023-05-14T03:41:51.002Z,82.10
2023-05-14T03:42:50.935Z,82.38
2023-05-14T03:43:51.004Z,82.31
2023-05-14T03:44:50.954Z,82.29
2023-05-14T03:45:51.030Z,82.60
2023-05-14T03:46:50.931Z,82.44
2023-05-14T03:47:51.007Z,82.22
2023-05-14T03:48:50.937Z,82.11
2023-05-14T03:49:50.976Z,82.27
2023-05-14T03:50:50.978Z,82.38
2023-05-14T03:51:51.404Z,81.77
2023-05-14T03:52:51.067Z,81.86
2023-05-14T03:53:51.089Z,81.81
2023-05-14T03:54:51.180Z,81.84
2023-05-14T03:55:51.209Z,81.80
2023-05-14T03:56:51.227Z,81.46
2023-05-14T03:57:51.376Z,81.91
2023-05-14T03:58:51.327Z,81.74
2023-05-14T03:59:51.372Z,81.30
2023-05-14T04:00:51.452Z,80.81
2023-05-14T04:01:51.443Z,80.65
2023-05-14T04:02:51.502Z,80.63
2023-05-14T04:03:51.651Z,80.30
2023-05-14T04:04:51.612Z,80.35
2023-05-14T04:05:51.485Z,80.39
2023-05-14T04:06:51.585Z,80.57
2023-05-14T04:07:51.594Z,80.46
2023-05-14T04:08:51.580Z,80.03
2023-05-14T04:09:51.597Z,80.28
2023-05-14T04:10:51.628Z,80.29
2023-05-14T04:11:51.699Z,79.99
2023-05-14T04:12:51.808Z,79.67
2023-05-14T04:13:51.724Z,79.81
2023-05-14T04:14:51.728Z,80.13
2023-05-14T04:15:51.818Z,79.72
2023-05-14T04:16:51.819Z,79.72
2023-05-14T04:17:51.875Z,79.73
2023-05-14T04:18:51.933Z,79.70
2023-05-14T04:19:51.870Z,79.88
2023-05-14T04:20:51.974Z,79.61
2023-05-14T04:21:51.963Z,79.89
2023-05-14T04:22:52.024Z,80.00
2023-05-14T04:23:51.987Z,79.91
2023-05-14T04:24:52.009Z,79.77
2023-05-14T04:25:52.047Z,79.92
2023-05-14T04:26:52.157Z,79.64
2023-05-14T04:27:52.319Z,79.79
2023-05-14T04:28:52.127Z,79.93
2023-05-14T04:29:52.181Z,80.18
2023-05-14T04:30:52.192Z,80.28
2023-05-14T04:31:52.304Z,80.45
2023-05-14T04:32:54.844Z,80.58
2023-05-14T04:33:52.404Z,80.52
2023-05-14T04:34:52.468Z,80.66
2023-05-14T04:35:52.577Z,80.50
2023-05-14T04:36:52.515Z,80.71
2023-05-14T04:37:52.626Z,80.41
2023-05-14T04:38:52.654Z,80.41
2023-05-14T04:39:52.699Z,80.37
2023-05-14T04:40:52.744Z,80.46
2023-05-14T04:41:52.756Z,80.59
2023-05-14T04:42:52.833Z,80.62
2023-05-14T04:43:52.881Z,80.49
2023-05-14T04:44:52.955Z,80.28
2023-05-14T04:45:53.084Z,80.29
2023-05-14T04:46:52.959Z,80.04
2023-05-14T04:47:53.062Z,79.82
2023-05-14T04:50:13.023Z,80.25
2023-05-14T04:52:56.922Z,81.66
2023-05-14T04:55:16.850Z,80.77
2023-05-14T04:59:22.968Z,81.69
2023-05-14T05:01:42.779Z,79.81
2023-05-14T05:05:09.039Z,81.93
2023-05-14T05:07:53.202Z,80.42
2023-05-14T05:10:13.832Z,81.74
2023-05-14T05:12:33.275Z,79.63
2023-05-14T05:13:33.617Z,79.54
2023-05-14T05:18:12.364Z,81.54
2023-05-14T05:19:12.600Z,79.95
2023-05-14T05:20:13.141Z,79.91
2023-05-14T05:21:12.498Z,80.03
2023-05-14T05:25:19.686Z,81.18
2023-05-14T05:26:19.641Z,80.65
2023-05-14T05:28:39.353Z,81.60
2023-05-14T05:29:38.954Z,81.65
2023-05-14T05:35:53.860Z,82.21
2023-05-14T05:39:03.838Z,84.39
2023-05-14T05:41:13.590Z,83.12
2023-05-14T05:42:13.553Z,82.84
2023-05-14T05:46:20.952Z,83.10
2023-05-14T05:47:21.189Z,82.45
2023-05-14T05:50:12.739Z,84.05
2023-05-14T05:52:32.409Z,82.21
2023-05-14T05:53:32.513Z,81.87
2023-05-14T05:55:51.986Z,81.78
2023-05-14T05:56:51.958Z,81.34
2023-05-14T05:57:52.005Z,81.01
2023-05-14T05:58:52.045Z,80.81
2023-05-14T06:01:11.613Z,80.55
2023-05-14T06:02:11.580Z,80.31
2023-05-14T06:03:11.842Z,80.24
2023-05-14T06:04:12.232Z,80.06
2023-05-14T06:05:11.614Z,80.04
2023-05-14T06:06:11.510Z,79.90
2023-05-14T06:07:11.535Z,79.81
2023-05-14T06:08:11.488Z,79.70
2023-05-14T06:09:11.545Z,79.29
2023-05-14T06:10:11.461Z,78.67
2023-05-14T06:11:11.501Z,78.54
2023-05-14T06:12:11.486Z,77.69
2023-05-14T06:13:11.490Z,77.47
2023-05-14T06:14:11.498Z,77.27
2023-05-14T06:15:11.476Z,77.08
2023-05-14T06:16:11.528Z,76.44
2023-05-14T06:17:11.395Z,76.86
2023-05-14T06:18:12.217Z,76.94
2023-05-14T06:19:11.606Z,76.76
2023-05-14T06:20:11.513Z,76.73
2023-05-14T06:21:11.437Z,76.70
2023-05-14T06:22:11.432Z,76.68
2023-05-14T06:25:05.419Z,77.79
2023-05-14T06:26:06.191Z,76.13
2023-05-14T06:32:21.893Z,77.26
2023-05-14T06:33:20.915Z,75.48
2023-05-14T06:34:20.903Z,75.51
2023-05-14T06:35:21.077Z,75.27
2023-05-14T06:36:20.977Z,75.05
2023-05-14T06:38:41.021Z,74.67
2023-05-14T06:39:40.807Z,74.16
2023-05-14T06:40:40.837Z,73.97
2023-05-14T06:43:38.612Z,75.44
2023-05-14T06:44:38.590Z,73.76
2023-05-14T06:46:57.781Z,73.33
2023-05-14T06:47:57.859Z,72.91
2023-05-14T06:51:36.790Z,72.51
2023-05-14T06:59:15.042Z,71.88
2023-05-14T07:00:14.957Z,71.89
2023-05-14T07:02:34.566Z,70.89
2023-05-14T07:03:34.616Z,70.81
2023-05-14T07:06:44.600Z,73.09
2023-05-14T07:07:34.449Z,71.83
2023-05-14T07:08:34.462Z,71.55
2023-05-14T07:09:34.687Z,71.41
2023-05-14T07:12:23.425Z,72.33
2023-05-14T07:13:23.034Z,70.89
2023-05-14T07:14:24.899Z,70.83
2023-05-14T07:17:11.667Z,72.03
2023-05-14T07:18:11.745Z,70.85
2023-05-14T07:19:12.450Z,70.54
2023-05-14T07:20:11.504Z,70.28
2023-05-14T07:21:11.509Z,70.39
2023-05-14T07:22:11.534Z,70.49
2023-05-14T07:23:11.528Z,70.38
2023-05-14T07:24:11.537Z,70.13
2023-05-14T07:25:11.745Z,69.98
2023-05-14T07:26:11.529Z,69.79
2023-05-14T07:27:11.457Z,69.32
2023-05-14T07:28:11.476Z,69.34
2023-05-14T07:29:11.467Z,68.92
2023-05-14T07:30:11.466Z,68.89
2023-05-14T07:33:03.062Z,70.39
2023-05-14T07:34:03.316Z,69.07
2023-05-14T07:35:03.738Z,69.22
2023-05-14T07:36:02.827Z,69.19
2023-05-14T07:37:03.219Z,69.25
2023-05-14T07:38:03.601Z,69.06
2023-05-14T07:39:02.869Z,69.05
2023-05-14T07:40:02.860Z,68.78
2023-05-14T07:41:03.279Z,68.44
2023-05-14T07:42:03.979Z,68.23
2023-05-14T07:43:03.179Z,67.60
2023-05-14T07:44:06.776Z,67.82
2023-05-14T07:45:03.094Z,68.03
2023-05-14T07:46:03.942Z,67.57
2023-05-14T07:47:03.022Z,67.48
2023-05-14T07:51:34.985Z,66.35
2023-05-14T07:52:34.984Z,65.82
2023-05-14T07:55:26.918Z,66.96
2023-05-14T07:56:26.695Z,64.81
2023-05-14T08:00:05.525Z,63.87
2023-05-14T08:01:05.340Z,63.31
2023-05-14T08:03:25.024Z,62.48
2023-05-14T08:04:24.826Z,62.02
2023-05-14T08:05:24.719Z,61.74
2023-05-14T08:06:24.752Z,61.10
2023-05-14T08:07:24.875Z,60.09
2023-05-14T08:08:25.044Z,59.70
2023-05-14T08:09:24.745Z,59.37
2023-05-14T08:10:24.957Z,58.89
2023-05-14T08:11:24.689Z,58.75
2023-05-14T08:12:24.668Z,58.01
2023-05-14T08:13:24.706Z,57.17
2023-05-14T08:14:24.683Z,57.25
2023-05-14T08:15:27.616Z,56.94
2023-05-14T08:16:24.700Z,56.29
2023-05-14T08:17:24.651Z,56.01
2023-05-14T08:18:24.753Z,55.56
2023-05-14T08:19:24.619Z,54.90
2023-05-14T08:20:24.922Z,54.09
2023-05-14T08:21:24.640Z,53.29
2023-05-14T08:22:24.637Z,52.89
2023-05-14T08:23:24.638Z,52.84
2023-05-14T08:24:24.590Z,53.30
2023-05-14T08:25:24.565Z,53.88
2023-05-14T08:26:24.579Z,53.87
2023-05-14T08:27:24.600Z,53.51
2023-05-14T08:28:24.605Z,53.26
2023-05-14T08:29:24.589Z,52.12
2023-05-14T08:30:24.803Z,51.12
2023-05-14T08:31:24.691Z,51.16
2023-05-14T08:32:24.532Z,51.16
2023-05-14T08:33:24.997Z,49.76
2023-05-14T08:34:24.530Z,49.41
2023-05-14T08:35:24.529Z,48.98
2023-05-14T08:36:24.529Z,48.29
2023-05-14T08:37:24.578Z,48.24
2023-05-14T08:38:24.572Z,47.11
2023-05-14T08:39:24.541Z,47.26
2023-05-14T08:40:24.734Z,45.77
2023-05-14T08:41:24.492Z,44.38
2023-05-14T08:42:24.464Z,43.49
2023-05-14T08:43:24.749Z,42.62
2023-05-14T08:44:24.483Z,42.02
2023-05-14T08:45:24.500Z,41.62
2023-05-14T08:46:24.426Z,41.24
2023-05-14T08:47:24.469Z,39.26
2023-05-14T08:48:24.514Z,38.37
2023-05-14T08:49:24.430Z,37.26
2023-05-14T08:50:24.589Z,36.96
2023-05-14T08:51:24.428Z,36.82
2023-05-14T08:52:24.431Z,36.38
2023-05-14T08:53:24.458Z,36.09
2023-05-14T08:54:24.406Z,36.09
2023-05-14T08:55:24.455Z,36.18
2023-05-14T08:56:24.482Z,35.93
2023-05-14T08:57:24.391Z,37.00
2023-05-14T08:58:24.383Z,36.80
2023-05-14T08:59:24.385Z,35.63
2023-05-14T09:00:24.690Z,36.50
2023-05-14T09:01:24.420Z,36.05
2023-05-14T09:02:24.460Z,36.15
2023-05-14T09:07:14.260Z,39.41
2023-05-14T09:08:15.137Z,39.47
2023-05-14T09:09:15.032Z,40.53
2023-05-14T09:10:13.891Z,40.82
2023-05-14T09:14:41.652Z,39.99
2023-05-14T09:15:41.395Z,39.72
2023-05-14T09:16:41.454Z,39.90
2023-05-14T09:17:41.410Z,38.75
2023-05-14T09:18:41.446Z,37.97
2023-05-14T09:19:41.433Z,38.23
2023-05-14T09:20:41.344Z,38.98
2023-05-14T09:21:41.338Z,39.11
2023-05-14T09:22:41.341Z,38.79
2023-05-14T09:23:41.338Z,37.95
2023-05-14T09:24:41.370Z,37.92
2023-05-14T09:25:41.349Z,38.53
2023-05-14T09:26:41.354Z,39.51
2023-05-14T09:27:41.325Z,39.87
2023-05-14T09:28:41.264Z,40.87
2023-05-14T09:29:41.280Z,41.56
2023-05-14T09:30:41.388Z,41.56
2023-05-14T09:31:41.424Z,41.97
2023-05-14T09:32:41.435Z,41.90
2023-05-14T09:33:41.519Z,41.32
2023-05-14T09:34:41.282Z,40.27
2023-05-14T09:35:41.317Z,39.38
2023-05-14T09:36:41.300Z,39.18
2023-05-14T09:37:41.297Z,39.26
2023-05-14T09:38:41.235Z,38.73
2023-05-14T09:39:41.211Z,40.03
2023-05-14T09:40:41.251Z,41.54
2023-05-14T09:41:41.234Z,41.90
2023-05-14T09:42:41.267Z,41.57
2023-05-14T09:43:41.248Z,41.33
2023-05-14T09:44:41.170Z,41.81
2023-05-14T09:45:41.191Z,42.17
2023-05-14T09:46:41.230Z,41.86
2023-05-14T09:47:41.241Z,43.07
2023-05-14T09:48:41.269Z,43.34
2023-05-14T09:49:41.226Z,43.41
2023-05-14T09:50:41.136Z,43.50
2023-05-14T09:51:41.118Z,43.48
2023-05-14T09:52:41.128Z,44.73
2023-05-14T09:53:42.113Z,45.58
2023-05-14T09:54:41.110Z,45.48
2023-05-14T09:55:41.153Z,45.86
2023-05-14T09:56:41.177Z,46.30
2023-05-14T09:57:41.148Z,46.41
2023-05-14T09:58:41.122Z,47.00
2023-05-14T09:59:41.154Z,47.40
2023-05-14T10:00:41.656Z,47.35
2023-05-14T10:01:41.362Z,47.50
2023-05-14T10:02:41.570Z,47.75
2023-05-14T10:03:41.306Z,48.02
2023-05-14T10:04:41.381Z,48.26
2023-05-14T10:05:41.473Z,48.38
2023-05-14T10:06:41.456Z,48.60
2023-05-14T10:07:41.532Z,49.70
2023-05-14T10:08:41.498Z,50.47
2023-05-14T10:09:41.526Z,50.60
2023-05-14T10:10:41.590Z,50.47
2023-05-14T10:11:41.632Z,50.21
2023-05-14T10:12:41.627Z,49.60
2023-05-14T10:13:41.695Z,48.97
2023-05-14T10:14:41.703Z,48.70
2023-05-14T10:15:41.794Z,49.67
2023-05-14T10:16:41.813Z,50.55
2023-05-14T10:17:41.836Z,50.95
2023-05-14T10:18:41.873Z,50.74
2023-05-14T10:19:41.832Z,50.53
2023-05-14T10:20:41.908Z,50.50
2023-05-14T10:21:41.850Z,50.23
2023-05-14T10:22:41.916Z,50.41
2023-05-14T10:23:41.880Z,50.28
2023-05-14T10:24:41.919Z,49.40
2023-05-14T10:25:41.961Z,49.25
2023-05-14T10:26:41.989Z,49.08
2023-05-14T10:27:41.958Z,48.51
2023-05-14T10:28:41.972Z,48.05
2023-05-14T10:29:42.077Z,48.27
2023-05-14T10:30:42.108Z,48.11
2023-05-14T10:31:42.227Z,48.27
2023-05-14T10:32:42.321Z,47.54
2023-05-14T10:33:42.193Z,47.72
2023-05-14T10:34:42.257Z,48.82
2023-05-14T10:35:42.259Z,49.22
2023-05-14T10:36:42.318Z,49.05
2023-05-14T10:37:42.319Z,48.57
2023-05-14T10:38:42.376Z,48.33
2023-05-14T10:39:42.419Z,48.09
2023-05-14T10:40:42.372Z,47.56
2023-05-14T10:41:42.432Z,47.77
2023-05-14T10:42:42.414Z,48.67
2023-05-14T10:43:42.478Z,49.21
2023-05-14T10:44:42.474Z,49.26
2023-05-14T10:45:42.487Z,49.38
2023-05-14T10:46:42.566Z,49.05
2023-05-14T10:47:42.553Z,48.46
2023-05-14T10:48:42.503Z,49.67
2023-05-14T10:49:43.869Z,49.31
2023-05-14T10:50:42.537Z,49.50
2023-05-14T10:51:42.591Z,49.07
2023-05-14T10:52:42.568Z,48.85
2023-05-14T10:53:42.656Z,48.67
2023-05-14T10:54:42.594Z,48.96
2023-05-14T10:55:42.662Z,48.89
2023-05-14T10:56:42.662Z,49.10
2023-05-14T10:57:42.687Z,49.31
2023-05-14T10:58:42.715Z,49.35
2023-05-14T10:59:42.780Z,49.55
2023-05-14T11:00:42.826Z,49.88
2023-05-14T11:01:42.852Z,49.68
2023-05-14T11:02:42.894Z,49.51
2023-05-14T11:03:43.007Z,49.13
2023-05-14T11:04:42.867Z,48.89
2023-05-14T11:05:42.935Z,48.71
2023-05-14T11:06:42.994Z,48.84
2023-05-14T11:07:43.063Z,49.28
2023-05-14T11:08:43.615Z,49.78
2023-05-14T11:09:43.153Z,49.58
2023-05-14T11:10:43.106Z,50.00
2023-05-14T11:11:43.172Z,49.50
2023-05-14T11:12:43.235Z,50.02
2023-05-14T11:13:43.231Z,50.23
2023-05-14T11:14:43.243Z,49.61
2023-05-14T11:15:43.338Z,49.38
2023-05-14T11:16:43.375Z,49.15
2023-05-14T11:17:43.461Z,48.76
2023-05-14T11:18:43.383Z,48.70
2023-05-14T11:19:43.388Z,48.60
2023-05-14T11:20:43.447Z,48.89
2023-05-14T11:21:43.445Z,48.72
2023-05-14T11:26:25.868Z,50.01
2023-05-14T11:27:25.699Z,48.55
2023-05-14T11:32:09.846Z,50.51
2023-05-14T11:34:30.306Z,48.96
2023-05-14T11:35:30.127Z,48.68
2023-05-14T11:37:49.461Z,48.73
2023-05-14T11:38:49.471Z,48.78
2023-05-14T11:39:50.463Z,48.92
2023-05-14T11:40:49.652Z,48.55
2023-05-14T11:41:49.507Z,48.42
2023-05-14T11:42:49.477Z,49.58
2023-05-14T11:43:49.483Z,50.20
2023-05-14T11:44:49.481Z,49.33
2023-05-14T11:45:49.618Z,49.61
2023-05-14T11:50:37.665Z,51.35
2023-05-14T11:54:16.463Z,49.28
2023-05-14T11:55:16.385Z,51.24
2023-05-14T11:56:16.451Z,51.99
2023-05-14T11:57:16.814Z,51.53
2023-05-14T11:58:16.416Z,52.26
2023-05-14T12:00:36.370Z,49.96
2023-05-14T12:01:35.672Z,49.79
2023-05-14T12:02:35.761Z,50.52
2023-05-14T12:03:35.963Z,53.04
2023-05-14T12:04:35.724Z,52.83
2023-05-14T12:05:35.648Z,53.78
2023-05-14T12:06:35.671Z,52.81
2023-05-14T12:07:35.614Z,52.63
2023-05-14T12:08:35.666Z,53.36
2023-05-14T12:09:35.889Z,54.16
2023-05-14T12:10:36.351Z,54.91
2023-05-14T12:11:35.586Z,58.01
2023-05-14T12:12:35.660Z,58.51
2023-05-14T12:13:35.555Z,57.80
2023-05-14T12:14:35.553Z,57.56
2023-05-14T12:15:35.906Z,57.99
2023-05-14T12:16:38.360Z,56.81
2023-05-14T12:17:35.555Z,57.44
2023-05-14T12:18:35.693Z,58.33
2023-05-14T12:19:35.575Z,57.28
2023-05-14T12:20:35.534Z,58.37
2023-05-14T12:21:35.494Z,58.88
2023-05-14T12:22:36.950Z,58.08
2023-05-14T12:23:35.511Z,59.67
2023-05-14T12:24:35.503Z,58.81
2023-05-14T12:25:35.530Z,59.79
2023-05-14T12:26:35.509Z,59.90
2023-05-14T12:27:35.483Z,58.03
2023-05-14T12:28:38.057Z,57.87
2023-05-14T12:29:35.517Z,56.80
2023-05-14T12:30:35.528Z,57.72
2023-05-14T12:31:36.435Z,58.72
2023-05-14T12:32:35.495Z,58.29
2023-05-14T12:33:35.466Z,59.45
2023-05-14T12:34:37.361Z,59.09
2023-05-14T12:35:35.472Z,59.61
2023-05-14T12:37:55.624Z,59.79
2023-05-14T12:38:56.220Z,59.35
2023-05-14T12:39:55.211Z,57.55
2023-05-14T12:40:55.217Z,60.13
2023-05-14T12:41:55.214Z,59.59
2023-05-14T12:42:56.774Z,58.29
2023-05-14T12:43:55.383Z,55.63
2023-05-14T12:44:55.268Z,57.59
2023-05-14T12:49:01.551Z,59.38
2023-05-14T12:50:02.228Z,59.96
2023-05-14T12:51:01.217Z,59.79
2023-05-14T12:52:17.301Z,60.35
2023-05-14T12:53:02.200Z,57.19
2023-05-14T13:00:04.269Z,57.65
2023-05-14T13:01:04.257Z,60.11
2023-05-14T13:02:04.249Z,60.20
2023-05-14T13:03:04.200Z,60.39
2023-05-14T13:04:04.210Z,60.60
2023-05-14T13:05:04.187Z,60.39
2023-05-14T13:07:56.481Z,59.71
2023-05-14T13:08:56.045Z,58.05
2023-05-14T13:09:56.014Z,57.73
2023-05-14T13:10:56.086Z,56.42
2023-05-14T13:11:55.988Z,57.34
2023-05-14T13:12:56.715Z,57.91
2023-05-14T13:13:56.092Z,57.63
2023-05-14T13:14:56.425Z,59.18
2023-05-14T13:15:56.126Z,59.37
2023-05-14T13:16:56.049Z,60.33
2023-05-14T13:17:56.023Z,60.94
2023-05-14T13:18:55.970Z,59.76
2023-05-14T13:19:55.955Z,58.16
2023-05-14T13:20:55.946Z,58.76
2023-05-14T13:21:55.975Z,57.68
2023-05-14T13:22:55.941Z,58.34
2023-05-14T13:23:55.923Z,57.52
2023-05-14T13:24:55.951Z,58.06
2023-05-14T13:25:55.972Z,59.80
2023-05-14T13:31:19.512Z,60.53
2023-05-14T13:32:19.379Z,60.26
2023-05-14T13:33:19.476Z,60.60
2023-05-14T13:34:20.250Z,61.16
2023-05-14T13:35:19.358Z,59.87
2023-05-14T13:36:19.370Z,60.39
2023-05-14T13:37:19.407Z,61.27
2023-05-14T13:38:19.398Z,61.91
2023-05-14T13:39:19.390Z,62.94
2023-05-14T13:40:19.321Z,61.67
2023-05-14T13:41:19.309Z,60.70
2023-05-14T13:42:19.450Z,61.19
2023-05-14T13:43:19.639Z,61.69
2023-05-14T13:44:19.335Z,63.13
2023-05-14T13:45:19.318Z,61.91
2023-05-14T13:46:19.293Z,61.12
2023-05-14T13:47:19.338Z,61.66
2023-05-14T13:48:19.341Z,61.29
2023-05-14T13:49:19.283Z,61.95
2023-05-14T13:50:19.298Z,60.89
2023-05-14T13:51:19.298Z,60.54
2023-05-14T13:52:19.379Z,60.84
2023-05-14T13:53:19.384Z,62.00
2023-05-14T13:54:19.403Z,61.58
2023-05-14T13:55:19.502Z,61.37
2023-05-14T13:56:19.496Z,60.74
2023-05-14T13:57:19.568Z,59.21
2023-05-14T13:58:19.557Z,57.62
2023-05-14T13:59:19.612Z,58.46
2023-05-14T14:00:19.676Z,58.66
2023-05-14T14:01:19.695Z,58.38
2023-05-14T14:02:19.656Z,58.43
2023-05-14T14:03:19.722Z,58.58
2023-05-14T14:04:19.697Z,59.16
2023-05-14T14:05:19.824Z,58.90
2023-05-14T14:06:19.784Z,58.55
2023-05-14T14:07:19.918Z,58.07
2023-05-14T14:08:24.139Z,60.52
2023-05-14T14:09:19.896Z,59.21
2023-05-14T14:10:19.903Z,59.08
2023-05-14T14:11:19.863Z,59.09
2023-05-14T14:12:20.007Z,59.79
2023-05-14T14:16:48.046Z,61.21
2023-05-14T14:19:07.726Z,59.62
2023-05-14T14:20:07.476Z,58.82
2023-05-14T14:21:07.502Z,59.22
2023-05-14T14:22:07.432Z,57.04
2023-05-14T14:23:07.701Z,58.22
2023-05-14T14:29:14.561Z,57.91
2023-05-14T14:35:13.162Z,59.19
2023-05-14T14:36:13.121Z,58.48
2023-05-14T14:37:13.303Z,56.51
2023-05-14T14:38:13.129Z,55.55
2023-05-14T14:39:13.029Z,55.11
2023-05-14T14:40:13.069Z,54.78
2023-05-14T14:41:13.063Z,55.16
2023-05-14T14:42:13.056Z,55.26
2023-05-14T14:43:13.044Z,56.47
2023-05-14T14:44:13.279Z,57.26
2023-05-14T14:45:13.072Z,57.19
2023-05-14T14:46:13.023Z,57.11
2023-05-14T14:47:12.974Z,56.79
2023-05-14T14:48:13.098Z,57.46
2023-05-14T14:49:13.030Z,57.32
2023-05-14T14:50:13.028Z,57.87
2023-05-14T14:51:12.964Z,57.71
2023-05-14T14:52:12.940Z,57.67
2023-05-14T14:53:13.256Z,57.50
2023-05-14T14:54:12.957Z,57.29
2023-05-14T14:55:12.984Z,56.90
2023-05-14T14:56:12.968Z,57.49
2023-05-14T14:57:12.949Z,57.56
2023-05-14T14:58:12.981Z,56.94
2023-05-14T14:59:12.963Z,55.88
2023-05-14T15:00:12.901Z,56.24
2023-05-14T15:01:13.119Z,56.80
2023-05-14T15:02:12.948Z,56.23
2023-05-14T15:03:13.046Z,56.90
2023-05-14T15:04:12.902Z,57.08
2023-05-14T15:05:12.908Z,58.59
2023-05-14T15:06:13.017Z,60.12
2023-05-14T15:07:12.899Z,62.53
2023-05-14T15:08:12.901Z,62.92
2023-05-14T15:09:12.852Z,64.58
2023-05-14T15:10:12.879Z,66.93
2023-05-14T15:11:12.885Z,67.19
2023-05-14T15:12:12.845Z,68.07
2023-05-14T15:13:12.861Z,67.98
2023-05-14T15:14:12.803Z,68.51
2023-05-14T15:15:13.315Z,69.07
2023-05-14T15:16:12.880Z,69.19
2023-05-14T15:17:12.854Z,69.47
2023-05-14T15:18:12.947Z,69.08
2023-05-14T15:19:12.836Z,69.58
2023-05-14T15:20:12.815Z,70.88
2023-05-14T15:21:12.819Z,72.02
2023-05-14T15:22:12.763Z,71.67
2023-05-14T15:23:12.858Z,71.09
2023-05-14T15:24:12.998Z,71.99
2023-05-14T15:25:12.888Z,71.64
2023-05-14T15:26:12.900Z,71.68
2023-05-14T15:27:12.961Z,71.05
2023-05-14T15:28:12.959Z,70.87
2023-05-14T15:29:12.982Z,70.54
2023-05-14T15:30:12.975Z,70.66
2023-05-14T15:31:13.168Z,70.28
2023-05-14T15:32:13.151Z,71.11
2023-05-14T15:33:13.188Z,70.51
2023-05-14T15:34:13.162Z,72.20
2023-05-14T15:35:13.173Z,73.77
2023-05-14T15:36:13.237Z,74.07
2023-05-14T15:37:13.269Z,72.01
2023-05-14T15:38:13.460Z,73.45
2023-05-14T15:39:13.408Z,73.69
2023-05-14T15:40:13.455Z,72.97
2023-05-14T15:41:13.474Z,73.17
2023-05-14T15:42:13.714Z,73.28
2023-05-14T15:43:13.586Z,73.49